Des Moines International Airport Des Moines US
ICAO: KDSM
IATA: DSM
Category: Large
Scheduled Services: Yes

Elevation: 958 ft
TransAlt. 18000 ft.

Airport Communications:
APP/DEP:118.6
ATIS:119.55
CLNC DEL:134.15
GND:121.9
ANG OPS MAINT:138.15
FORT DODGE RDO:122.65
TWR:118.3
UNICOM:122.95

KDSM Zoom In..

Runways:

(A) RW 05 length 9003 ft width 150 ft
ILS 111.50 / hdg 51

(B) RW 13 length 9002 ft width 150 ft
ILS 111.90 / hdg 129

(C) RW 23 length 9003 ft width 150 ft
---- / hdg 231

(D) RW 31 length 9002 ft width 150 ft
ILS 110.30 / hdg 309

Location; KDSM
Day. 22 / Time. 01.54 Zulu
* Altimeter: 29.97
* Temperature: 21° c. 69.8°f.
* Wind from: 090° Speed 04 kn.
Dewpoint: 16° c.
Visibility: 10 Statute Miles.
Clouds: Scattered 3700 ft.
Clouds: Broken 4800 ft.
Clouds: Broken 25000 ft.

KDSM 220154Z 09004KT 10SM SCT037 BKN048 BKN250 21/16 A2997 RMK AO2 SLP144 T02060161


Wind From 090°
Speed 04 kn.

 
 
jpsmedia.com for Web Design SOUNDCLOUD worldairports.se 2018   terms of use